Time;durP1;ratioP1;P1;durP2;ratioP2;P2;SDS_P1;SDS_P2;PMS_P1;PMS_P2;Temp;Humidity;BMP_temperature;BMP_pressure;BME280_temperature;BME280_humidity;BME280_pressure;Samples;Min_cycle;Max_cycle;Signal;HPM_P1;HPM_P2
2022/07/03 00:01:20;;;;;;;3.42;1.40;;;18.00;61.40;;;;;;4999422;28;20029;-78
2022/07/03 00:03:46;;;;;;;4.40;1.50;;;18.00;61.70;;;;;;4995191;28;20038;-79
2022/07/03 00:06:13;;;;;;;4.03;1.20;;;18.00;62.00;;;;;;4996446;28;20405;-79
2022/07/03 00:08:39;;;;;;;6.97;1.38;;;17.90;62.40;;;;;;4998031;28;20096;-78
2022/07/03 00:11:05;;;;;;;4.45;1.40;;;17.90;62.30;;;;;;5008649;28;20420;-79
2022/07/03 00:13:31;;;;;;;4.57;1.45;;;17.90;62.50;;;;;;4992572;28;20019;-79
2022/07/03 00:15:57;;;;;;;6.88;1.40;;;17.80;62.60;;;;;;5000311;28;20033;-78
2022/07/03 00:18:23;;;;;;;3.85;1.30;;;17.80;62.60;;;;;;4998099;28;20508;-79
2022/07/03 00:20:53;;;;;;;4.68;1.25;;;17.80;62.70;;;;;;4997518;28;20034;-78
2022/07/03 00:23:21;;;;;;;5.05;1.42;;;17.80;62.90;;;;;;4995598;28;20118;-77
2022/07/03 00:25:49;;;;;;;4.03;1.35;;;17.70;62.90;;;;;;4993230;28;20023;-78
2022/07/03 00:28:18;;;;;;;3.92;1.17;;;17.70;63.00;;;;;;4995062;28;20556;-79
2022/07/03 00:30:47;;;;;;;4.18;1.17;;;17.70;62.90;;;;;;4996551;28;20022;-78
2022/07/03 00:33:14;;;;;;;4.45;1.27;;;17.60;62.70;;;;;;4994580;28;20037;-79
2022/07/03 00:35:42;;;;;;;4.72;1.20;;;17.60;62.80;;;;;;5001837;28;20022;-78
2022/07/03 00:38:07;;;;;;;5.38;1.40;;;17.60;62.60;;;;;;5008028;28;20026;-78
2022/07/03 00:40:34;;;;;;;4.55;1.20;;;17.50;62.20;;;;;;5010207;28;20048;-78
2022/07/03 00:43:00;;;;;;;4.72;1.10;;;17.40;62.10;;;;;;4992992;28;20046;-79
2022/07/03 00:45:26;;;;;;;5.22;1.20;;;17.40;62.00;;;;;;4995358;28;20040;-79
2022/07/03 00:47:54;;;;;;;3.08;1.15;;;17.30;61.90;;;;;;4997082;28;20490;-78
2022/07/03 00:50:26;;;;;;;4.35;1.20;;;17.20;61.90;;;;;;5000491;28;20022;-79
2022/07/03 00:52:54;;;;;;;5.50;1.70;;;17.10;62.30;;;;;;5006349;28;20030;-78
2022/07/03 00:55:26;;;;;;;4.13;1.40;;;17.00;62.10;;;;;;5004556;28;20030;-78
2022/07/03 00:57:54;;;;;;;3.40;1.35;;;17.00;63.00;;;;;;5008695;28;20031;-79
2022/07/03 01:00:20;;;;;;;4.05;1.33;;;17.00;63.50;;;;;;4994951;28;20045;-79
2022/07/03 01:02:54;;;;;;;3.75;1.52;;;16.90;63.60;;;;;;4997983;28;20037;-78
2022/07/03 01:05:34;;;;;;;5.85;1.52;;;16.90;62.90;;;;;;4994736;28;20030;-79
2022/07/03 01:08:25;;;;;;;5.05;1.35;;;16.90;63.80;;;;;;4993903;28;20038;-79
2022/07/03 01:11:05;;;;;;;3.90;1.23;;;16.90;63.80;;;;;;4994555;28;20022;-78
2022/07/03 01:13:46;;;;;;;3.83;1.17;;;16.80;63.60;;;;;;4990773;28;20034;-78
2022/07/03 01:16:40;;;;;;;4.07;1.23;;;16.80;63.80;;;;;;5006815;28;20133;-79
2022/07/03 01:19:35;;;;;;;6.80;1.35;;;16.80;63.00;;;;;;5007048;28;20033;-79
2022/07/03 01:22:22;;;;;;;3.75;1.20;;;16.80;62.90;;;;;;4997836;28;20057;-78
2022/07/03 01:25:04;;;;;;;5.32;1.40;;;16.70;62.80;;;;;;4993183;28;20031;-78
2022/07/03 01:27:51;;;;;;;4.95;1.58;;;16.70;62.80;;;;;;5007956;28;20186;-78
2022/07/03 01:30:18;;;;;;;4.47;1.30;;;16.70;62.80;;;;;;4996881;28;20049;-79
2022/07/03 01:32:46;;;;;;;3.60;1.20;;;16.60;62.90;;;;;;5001919;28;20032;-79
2022/07/03 01:35:15;;;;;;;3.47;1.40;;;16.60;62.70;;;;;;5005208;28;20470;-78
2022/07/03 01:37:41;;;;;;;3.25;1.20;;;16.50;62.70;;;;;;4993294;28;20053;-78
2022/07/03 01:40:08;;;;;;;4.13;1.40;;;16.50;62.70;;;;;;5009235;28;20060;-78
2022/07/03 01:42:37;;;;;;;4.03;1.30;;;16.50;63.00;;;;;;4993830;28;20053;-78
2022/07/03 01:45:03;;;;;;;3.63;1.25;;;16.40;63.30;;;;;;4994229;28;20035;-78
2022/07/03 01:47:30;;;;;;;5.35;1.30;;;16.40;63.50;;;;;;5010933;28;20034;-79
2022/07/03 01:49:56;;;;;;;4.95;1.33;;;16.40;63.50;;;;;;4993710;28;20026;-79
2022/07/03 01:52:22;;;;;;;8.07;1.83;;;16.40;62.20;;;;;;5001223;28;20034;-78
2022/07/03 01:54:51;;;;;;;3.00;1.30;;;16.40;63.10;;;;;;5009742;28;20038;-78
2022/07/03 01:57:17;;;;;;;2.42;1.20;;;16.40;63.50;;;;;;4995431;28;20034;-78
2022/07/03 01:59:42;;;;;;;3.28;1.20;;;16.30;63.90;;;;;;4993567;28;20026;-79
2022/07/03 02:02:24;;;;;;;3.40;1.17;;;16.30;64.30;;;;;;4996523;28;20030;-79
2022/07/03 02:05:03;;;;;;;4.22;1.30;;;16.30;64.30;;;;;;4993391;28;20370;-78
2022/07/03 02:07:44;;;;;;;4.03;1.40;;;16.30;63.60;;;;;;4994178;28;20030;-78
2022/07/03 02:10:13;;;;;;;4.28;1.40;;;16.20;63.50;;;;;;5006366;28;20073;-78
2022/07/03 02:12:51;;;;;;;5.97;1.40;;;16.20;63.40;;;;;;4994527;28;20595;-77
2022/07/03 02:15:25;;;;;;;5.10;1.33;;;16.10;63.40;;;;;;4995291;28;20029;-78
2022/07/03 02:17:52;;;;;;;4.90;1.52;;;16.10;64.40;;;;;;4997477;28;20026;-78
2022/07/03 02:20:18;;;;;;;3.63;1.30;;;16.10;63.20;;;;;;4993676;28;20052;-78
2022/07/03 02:22:57;;;;;;;4.55;1.23;;;16.00;63.10;;;;;;4989571;28;20076;-78
2022/07/03 02:25:32;;;;;;;3.83;1.38;;;16.00;62.80;;;;;;4993959;28;20029;-78
2022/07/03 02:28:13;;;;;;;5.07;1.50;;;15.90;62.90;;;;;;4992511;28;20066;-78
2022/07/03 02:30:42;;;;;;;;;;;15.90;63.10;;;;;;5000048;28;20041;-78
2022/07/03 02:33:11;;;;;;;3.38;1.30;;;15.80;62.90;;;;;;5007130;28;19913;-78
2022/07/03 02:35:37;;;;;;;3.63;1.38;;;15.70;63.00;;;;;;5006417;28;20025;-78
2022/07/03 02:38:19;;;;;;;2.90;1.30;;;15.70;63.10;;;;;;5003603;28;20042;-78
2022/07/03 02:40:54;;;;;;;8.75;1.60;;;15.60;63.10;;;;;;4992964;28;21103;-79
2022/07/03 02:43:29;;;;;;;4.10;1.48;;;15.60;63.40;;;;;;5022279;28;20073;-78
2022/07/03 02:46:52;;;;;;;7.78;2.78;;;15.50;63.80;;;;;;5009521;28;20029;-78
2022/07/03 02:48:58;;;;;;;21.30;8.40;;;15.50;64.10;;;;;;5003164;28;20052;-78
2022/07/03 02:51:33;;;;;;;12.13;4.55;;;15.40;64.50;;;;;;4994683;28;20026;-78
2022/07/03 02:54:19;;;;;;;10.55;4.03;;;15.40;65.00;;;;;;4992406;28;20045;-78
2022/07/03 02:57:05;;;;;;;10.43;4.10;;;15.40;65.10;;;;;;5003246;28;20044;-78
2022/07/03 03:00:03;;;;;;;8.43;3.45;;;15.40;64.90;;;;;;4998646;28;20030;-78
2022/07/03 03:02:47;;;;;;;7.88;3.05;;;15.40;64.80;;;;;;5001420;28;20030;-78
2022/07/03 03:05:30;;;;;;;8.85;2.72;;;15.30;63.50;;;;;;4992616;28;20022;-78
2022/07/03 03:08:11;;;;;;;8.35;2.75;;;15.30;64.20;;;;;;4992003;28;20065;-79
2022/07/03 03:10:38;;;;;;;8.13;2.47;;;15.30;63.80;;;;;;4991615;28;20080;-78
2022/07/03 03:13:10;;;;;;;8.15;2.90;;;15.20;63.60;;;;;;4999437;28;20679;-78
2022/07/03 03:15:37;;;;;;;7.53;2.45;;;15.20;64.10;;;;;;5012191;28;20042;-78
2022/07/03 03:18:05;;;;;;;7.90;2.80;;;15.20;64.60;;;;;;5003504;28;20497;-78
2022/07/03 03:20:37;;;;;;;7.05;2.60;;;15.20;64.80;;;;;;5007826;28;20022;-78
2022/07/03 03:23:31;;;;;;;6.25;2.25;;;15.20;64.90;;;;;;5006771;28;20045;-78
2022/07/03 03:25:58;;;;;;;6.97;2.08;;;15.20;64.70;;;;;;4996540;28;20056;-78
2022/07/03 03:28:25;;;;;;;4.43;1.88;;;15.20;64.60;;;;;;5003700;28;20048;-78
2022/07/03 03:30:50;;;;;;;5.00;2.00;;;15.20;64.50;;;;;;4999497;28;20076;-78
2022/07/03 03:33:17;;;;;;;6.80;2.40;;;15.10;65.20;;;;;;5008063;28;20026;-78
2022/07/03 03:35:43;;;;;;;5.13;2.30;;;15.20;65.30;;;;;;5002712;28;20022;-78
2022/07/03 03:38:08;;;;;;;5.40;2.13;;;15.10;65.30;;;;;;4995914;28;20026;-78
2022/07/03 03:40:35;;;;;;;5.82;2.20;;;15.10;65.50;;;;;;4994844;28;20047;-78
2022/07/03 03:43:02;;;;;;;7.10;2.20;;;15.10;65.40;;;;;;5002389;28;20088;-78
2022/07/03 03:45:27;;;;;;;5.30;2.28;;;15.10;65.40;;;;;;4996802;28;20027;-78
2022/07/03 03:47:53;;;;;;;7.00;2.40;;;15.10;66.40;;;;;;4997161;28;20035;-78
2022/07/03 03:50:19;;;;;;;6.40;2.30;;;15.10;65.50;;;;;;4998049;28;20057;-78
2022/07/03 03:52:45;;;;;;;5.50;2.25;;;15.00;65.80;;;;;;4997132;28;20063;-79
2022/07/03 03:55:11;;;;;;;7.47;2.20;;;15.00;66.00;;;;;;4997116;28;20440;-78
2022/07/03 03:57:37;;;;;;;7.22;2.30;;;14.90;66.10;;;;;;4996023;28;20397;-78
2022/07/03 04:00:04;;;;;;;6.70;2.40;;;14.90;66.10;;;;;;4996279;28;20030;-78
2022/07/03 04:02:30;;;;;;;11.43;3.75;;;14.90;65.90;;;;;;4996050;28;20030;-78
2022/07/03 04:04:56;;;;;;;10.07;3.92;;;14.90;65.90;;;;;;4994081;28;20160;-78
2022/07/03 04:07:22;;;;;;;6.28;3.42;;;14.80;65.30;;;;;;5009925;28;20025;-78
2022/07/03 04:09:47;;;;;;;5.45;2.90;;;14.80;66.10;;;;;;4997046;28;20121;-78
2022/07/03 04:12:13;;;;;;;6.13;3.00;;;14.80;66.30;;;;;;4997285;28;20038;-78
2022/07/03 04:14:39;;;;;;;7.60;3.10;;;14.70;66.50;;;;;;5003783;28;20029;-78
2022/07/03 04:17:04;;;;;;;5.47;2.58;;;14.70;66.70;;;;;;4995535;28;20140;-78
2022/07/03 04:19:30;;;;;;;4.38;2.40;;;14.70;66.70;;;;;;4993849;28;20034;-78
2022/07/03 04:21:56;;;;;;;6.35;2.80;;;14.60;66.70;;;;;;5023369;28;20141;-78
2022/07/03 04:24:22;;;;;;;6.38;2.67;;;14.60;66.80;;;;;;4997424;28;20488;-78
2022/07/03 04:26:48;;;;;;;4.45;2.67;;;14.60;67.00;;;;;;4994456;28;20041;-78
2022/07/03 04:29:13;;;;;;;6.20;3.17;;;14.60;66.90;;;;;;4994993;28;20053;-78
2022/07/03 04:31:40;;;;;;;6.03;2.63;;;14.60;66.60;;;;;;4999754;28;20525;-78
2022/07/03 04:34:06;;;;;;;5.75;2.88;;;14.50;66.40;;;;;;5022617;28;20894;-78
2022/07/03 04:36:32;;;;;;;4.78;2.65;;;14.50;66.50;;;;;;5008609;28;20018;-78
2022/07/03 04:38:58;;;;;;;3.67;2.30;;;14.50;66.60;;;;;;5006807;28;20062;-78
2022/07/03 04:41:23;;;;;;;4.50;2.20;;;14.40;66.50;;;;;;5004407;28;20129;-78
2022/07/03 04:43:49;;;;;;;5.45;2.03;;;14.40;66.50;;;;;;4992719;28;20053;-78
2022/07/03 04:46:15;;;;;;;4.00;2.22;;;14.40;66.60;;;;;;4994737;28;20370;-78
2022/07/03 04:48:40;;;;;;;4.40;2.20;;;14.50;66.70;;;;;;4996049;28;20058;-78
2022/07/03 04:51:06;;;;;;;3.90;2.35;;;14.50;66.80;;;;;;5000283;28;20022;-78
2022/07/03 04:53:32;;;;;;;8.68;2.50;;;14.50;67.10;;;;;;5003025;28;20034;-78
2022/07/03 04:55:57;;;;;;;12.15;2.85;;;14.50;68.40;;;;;;4998469;28;20501;-78
2022/07/03 04:58:23;;;;;;;7.43;3.20;;;14.50;67.90;;;;;;5007515;28;20424;-78
2022/07/03 05:00:49;;;;;;;5.63;2.95;;;14.50;68.10;;;;;;4997055;28;20041;-78
2022/07/03 05:03:15;;;;;;;5.78;2.75;;;14.50;68.30;;;;;;4997532;28;20840;-78
2022/07/03 05:05:40;;;;;;;4.45;2.20;;;14.60;68.40;;;;;;4995171;28;20022;-78
2022/07/03 05:08:06;;;;;;;4.22;1.98;;;14.60;67.90;;;;;;4994324;28;20043;-78
2022/07/03 05:10:32;;;;;;;5.45;2.38;;;14.60;68.80;;;;;;4990738;28;20026;-78
2022/07/03 05:12:57;;;;;;;6.13;2.70;;;14.70;69.10;;;;;;4998039;28;20041;-77
2022/07/03 05:15:23;;;;;;;5.00;2.90;;;14.70;69.30;;;;;;4996197;28;20473;-77
2022/07/03 05:17:49;;;;;;;4.82;2.63;;;14.70;69.40;;;;;;4995302;28;20034;-78
2022/07/03 05:20:24;;;;;;;5.07;2.65;;;14.70;69.60;;;;;;4994666;28;20481;-77
2022/07/03 05:22:51;;;;;;;5.30;2.65;;;14.80;69.60;;;;;;4991644;28;20073;-77
2022/07/03 05:25:17;;;;;;;4.93;2.55;;;14.90;69.70;;;;;;5009172;28;20117;-78
2022/07/03 05:27:42;;;;;;;5.53;2.97;;;14.90;69.80;;;;;;4994280;28;20204;-77
2022/07/03 05:30:08;;;;;;;5.22;2.83;;;14.90;70.00;;;;;;4997896;28;20019;-77
2022/07/03 05:32:34;;;;;;;6.60;2.30;;;15.00;70.10;;;;;;4998095;28;20042;-77
2022/07/03 05:35:00;;;;;;;5.07;2.50;;;15.00;70.40;;;;;;5005881;28;20023;-77
2022/07/03 05:37:27;;;;;;;4.95;2.60;;;15.00;71.00;;;;;;4993318;28;20041;-77
2022/07/03 05:39:53;;;;;;;5.38;2.55;;;15.10;71.70;;;;;;5003677;28;20099;-77
2022/07/03 05:42:19;;;;;;;6.50;2.80;;;15.10;72.00;;;;;;5007015;28;20045;-78
2022/07/03 05:44:45;;;;;;;6.35;2.72;;;15.20;72.50;;;;;;5000736;28;20144;-76
2022/07/03 05:47:11;;;;;;;5.20;2.85;;;15.20;72.80;;;;;;5005053;28;20042;-76
2022/07/03 05:49:36;;;;;;;6.20;2.85;;;15.30;73.00;;;;;;5007502;28;20026;-76
2022/07/03 05:52:02;;;;;;;5.25;2.13;;;15.40;73.00;;;;;;4995768;28;20486;-76
2022/07/03 05:54:28;;;;;;;8.13;2.38;;;15.60;73.10;;;;;;4993958;28;20026;-76
2022/07/03 05:56:53;;;;;;;5.30;2.20;;;15.70;73.50;;;;;;4993964;28;20556;-77
2022/07/03 05:59:19;;;;;;;5.55;2.20;;;16.10;73.00;;;;;;4993903;28;20037;-75
2022/07/03 06:01:45;;;;;;;7.28;2.05;;;16.00;73.70;;;;;;4993700;28;20038;-77
2022/07/03 06:04:10;;;;;;;7.00;2.15;;;16.20;73.70;;;;;;4997793;28;20040;-75
2022/07/03 06:06:36;;;;;;;5.15;2.00;;;16.40;73.80;;;;;;5008202;28;20033;-76
2022/07/03 06:09:02;;;;;;;7.68;2.00;;;16.60;73.40;;;;;;4998101;28;20046;-76
2022/07/03 06:11:28;;;;;;;8.07;1.90;;;16.70;73.30;;;;;;4994097;28;20026;-78
2022/07/03 06:13:54;;;;;;;8.00;1.90;;;16.90;73.10;;;;;;5005476;28;20034;-78
2022/07/03 06:16:19;;;;;;;7.85;1.75;;;17.00;72.60;;;;;;4999168;28;20477;-78
2022/07/03 06:18:45;;;;;;;6.00;2.05;;;17.20;72.40;;;;;;5006614;28;20499;-80
2022/07/03 06:21:11;;;;;;;6.95;1.95;;;17.30;71.70;;;;;;5008120;28;20099;-80
2022/07/03 06:23:36;;;;;;;5.88;1.60;;;17.40;71.50;;;;;;5003628;28;20453;-80
2022/07/03 06:26:02;;;;;;;5.13;1.70;;;17.60;71.40;;;;;;5004674;28;20022;-80
2022/07/03 06:28:27;;;;;;;6.72;1.73;;;17.80;70.90;;;;;;5001327;28;20030;-80
2022/07/03 06:30:53;;;;;;;8.02;1.60;;;17.90;70.40;;;;;;5002009;28;20073;-81
2022/07/03 06:33:19;;;;;;;6.78;1.40;;;18.30;68.60;;;;;;5006465;28;20121;-80
2022/07/03 06:35:44;;;;;;;6.60;1.63;;;18.30;69.40;;;;;;5003879;28;20041;-80
2022/07/03 06:38:10;;;;;;;6.88;1.40;;;18.50;69.10;;;;;;5005529;28;20481;-81
2022/07/03 06:40:36;;;;;;;5.68;1.33;;;18.70;68.50;;;;;;5007167;28;20565;-80
2022/07/03 06:43:02;;;;;;;7.18;1.42;;;19.00;68.40;;;;;;5005528;28;20477;-83
2022/07/03 06:45:27;;;;;;;7.03;1.38;;;19.20;67.30;;;;;;4993917;28;20030;-81
2022/07/03 06:47:53;;;;;;;9.93;1.50;;;19.40;66.00;;;;;;5004376;28;20041;-80
2022/07/03 06:50:18;;;;;;;8.25;1.30;;;19.70;65.10;;;;;;5005026;28;20032;-82
2022/07/03 06:52:44;;;;;;;5.40;1.40;;;20.00;63.90;;;;;;5007413;28;20080;-82
2022/07/03 06:55:10;;;;;;;6.32;1.25;;;20.30;62.90;;;;;;5007645;28;20053;-81
2022/07/03 06:57:35;;;;;;;7.72;1.33;;;20.80;60.40;;;;;;4996260;28;20374;-82
2022/07/03 07:00:01;;;;;;;6.20;1.20;;;21.80;56.90;;;;;;4996275;28;20121;-80
2022/07/03 07:02:27;;;;;;;9.13;1.88;;;22.80;52.70;;;;;;5002559;28;20049;-82
2022/07/03 07:04:52;;;;;;;6.55;1.35;;;23.90;48.50;;;;;;5005553;28;20400;-81
2022/07/03 07:07:18;;;;;;;8.73;1.25;;;25.00;44.80;;;;;;4998370;28;20072;-82
2022/07/03 07:09:44;;;;;;;8.45;1.38;;;25.90;42.00;;;;;;5002434;28;20037;-83
2022/07/03 07:12:10;;;;;;;6.90;1.30;;;26.50;39.90;;;;;;4999119;28;20030;-81
2022/07/03 07:14:35;;;;;;;6.18;1.17;;;27.10;38.60;;;;;;5001259;28;20030;-80
2022/07/03 07:17:01;;;;;;;6.28;1.30;;;27.50;37.10;;;;;;5004352;28;20092;-79
2022/07/03 17:34:24;;;;;;;5.53;1.00;;;24.00;44.40;;;;;;5062588;28;20432;-76
2022/07/03 17:36:50;;;;;;;3.55;1.00;;;22.80;44.20;;;;;;5059793;28;20044;-77
2022/07/03 17:39:18;;;;;;;5.40;1.33;;;22.70;44.50;;;;;;5059683;28;20024;-74
2022/07/03 17:41:47;;;;;;;4.50;0.93;;;22.70;44.90;;;;;;5056724;28;20111;-77
2022/07/03 17:44:15;;;;;;;4.78;1.10;;;22.70;44.60;;;;;;5058120;28;20119;-79
2022/07/03 17:46:44;;;;;;;5.80;1.30;;;22.80;44.40;;;;;;5056808;28;20029;-78
2022/07/03 17:49:14;;;;;;;5.13;1.20;;;23.00;45.50;;;;;;5059626;28;20039;-77
2022/07/03 17:51:44;;;;;;;5.55;1.65;;;22.90;43.70;;;;;;5053085;28;20032;-76
2022/07/03 17:54:10;;;;;;;4.60;1.23;;;24.50;43.90;;;;;;5042089;28;20163;-77
2022/07/03 17:56:37;;;;;;;8.30;1.50;;;23.00;43.70;;;;;;5059489;28;20518;-77
2022/07/03 17:59:06;;;;;;;8.57;1.40;;;23.00;43.90;;;;;;5061245;28;20021;-77
2022/07/03 18:01:32;;;;;;;8.73;3.67;;;23.00;43.80;;;;;;5062265;28;20109;-79
2022/07/03 18:03:58;;;;;;;5.13;1.05;;;22.90;43.80;;;;;;5050629;28;20366;-77
2022/07/03 18:06:29;;;;;;;4.72;1.00;;;22.90;43.90;;;;;;5058309;28;20042;-76
2022/07/03 18:09:20;;;;;;;3.60;0.95;;;22.80;44.00;;;;;;5058477;28;20119;-77
2022/07/03 18:11:59;;;;;;;2.88;0.73;;;22.70;44.40;;;;;;5052484;28;20037;-76
2022/07/03 18:14:39;;;;;;;8.32;1.20;;;22.60;44.80;;;;;;5063779;28;20463;-76
2022/07/03 18:17:08;;;;;;;9.80;3.65;;;22.40;46.00;;;;;;5047138;28;20039;-77
2022/07/03 18:19:33;;;;;;;5.70;1.10;;;22.30;45.00;;;;;;5052296;28;20044;-76
2022/07/03 18:22:01;;;;;;;5.85;1.10;;;22.30;45.00;;;;;;5051985;28;20442;-76
2022/07/03 18:24:34;;;;;;;5.63;0.90;;;22.30;44.90;;;;;;5056636;28;20060;-76
2022/07/03 18:27:07;;;;;;;5.32;1.50;;;22.20;44.80;;;;;;5066420;28;20414;-76
2022/07/03 18:29:41;;;;;;;16.17;6.53;;;22.20;44.90;;;;;;5056908;28;20037;-76
2022/07/03 18:32:13;;;;;;;5.30;2.00;;;22.20;44.90;;;;;;5058925;28;20025;-76
2022/07/03 18:34:42;;;;;;;4.72;0.93;;;22.20;45.00;;;;;;5046328;28;20021;-76
2022/07/03 18:37:08;;;;;;;6.78;1.77;;;22.20;45.10;;;;;;5051945;28;20029;-76
2022/07/03 18:39:37;;;;;;;10.85;3.70;;;22.10;45.10;;;;;;5058244;28;20048;-76
2022/07/03 18:42:03;;;;;;;7.88;2.30;;;22.10;45.40;;;;;;5053222;28;20040;-76
2022/07/03 18:44:31;;;;;;;4.93;0.90;;;22.10;45.40;;;;;;5044639;28;20026;-76
2022/07/03 18:46:57;;;;;;;5.90;1.17;;;22.10;45.20;;;;;;5042509;28;20033;-76
2022/07/03 18:49:23;;;;;;;5.18;0.90;;;22.00;45.40;;;;;;5039661;28;20388;-76
2022/07/03 18:51:53;;;;;;;4.10;0.80;;;21.90;45.80;;;;;;5046814;28;20032;-76
2022/07/03 18:54:31;;;;;;;3.50;1.08;;;21.80;46.40;;;;;;5037032;28;20057;-76
2022/07/03 18:57:06;;;;;;;4.60;0.90;;;21.70;46.70;;;;;;5036179;28;20440;-76
2022/07/03 18:59:54;;;;;;;3.38;0.90;;;21.60;47.20;;;;;;5044965;28;20052;-76
2022/07/03 19:02:22;;;;;;;5.07;1.40;;;21.50;47.50;;;;;;5048249;28;20025;-76
2022/07/03 19:04:52;;;;;;;5.35;1.23;;;21.30;47.80;;;;;;5039116;28;20056;-76
2022/07/03 19:07:23;;;;;;;3.08;0.95;;;21.20;48.40;;;;;;5032317;28;20037;-75
2022/07/03 19:10:04;;;;;;;4.60;1.00;;;21.10;48.80;;;;;;5042886;28;20563;-76
2022/07/03 19:12:39;;;;;;;5.93;1.23;;;21.00;48.90;;;;;;5044850;28;20040;-75
2022/07/03 19:15:07;;;;;;;6.07;1.15;;;21.00;49.40;;;;;;5038277;28;20035;-72
2022/07/03 19:17:34;;;;;;;4.95;1.02;;;21.00;49.20;;;;;;5042605;28;20037;-73
2022/07/03 19:20:01;;;;;;;5.95;1.23;;;21.00;49.40;;;;;;5039199;28;20045;-73
2022/07/03 19:22:28;;;;;;;5.97;1.30;;;20.90;49.50;;;;;;5045921;28;20036;-73
2022/07/03 19:24:54;;;;;;;10.38;1.50;;;20.80;49.90;;;;;;5047020;28;20032;-73
2022/07/03 19:27:20;;;;;;;8.93;1.95;;;20.80;50.20;;;;;;5046437;28;20106;-73
2022/07/03 19:29:46;;;;;;;6.38;1.20;;;20.70;50.50;;;;;;5037887;28;20079;-73
2022/07/03 19:32:12;;;;;;;32.53;16.80;;;20.60;50.80;;;;;;5040655;28;20029;-71
2022/07/03 19:34:39;;;;;;;57.00;32.60;;;20.60;51.00;;;;;;5038452;28;20043;-73
2022/07/03 19:37:06;;;;;;;120.03;72.10;;;20.60;51.60;;;;;;5043099;28;20591;-74
2022/07/03 19:39:32;;;;;;;37.08;17.73;;;20.50;51.90;;;;;;5046230;28;20404;-74
2022/07/03 19:41:59;;;;;;;64.63;36.45;;;20.40;52.00;;;;;;5039651;28;20022;-76
2022/07/03 19:44:26;;;;;;;24.60;12.48;;;20.30;52.40;;;;;;5040253;28;20377;-72
2022/07/03 19:46:52;;;;;;;7.47;2.83;;;20.30;52.30;;;;;;5045305;28;20442;-73
2022/07/03 19:49:17;;;;;;;8.48;1.60;;;20.30;52.30;;;;;;5044920;28;20100;-73
2022/07/03 19:51:44;;;;;;;7.35;1.10;;;20.40;52.20;;;;;;5047059;28;20551;-74
2022/07/03 19:54:10;;;;;;;7.10;1.20;;;20.40;52.70;;;;;;5045471;28;20535;-74
2022/07/03 19:56:36;;;;;;;11.18;2.90;;;20.40;51.90;;;;;;5041426;28;20037;-74
2022/07/03 19:59:02;;;;;;;6.13;1.40;;;20.50;51.80;;;;;;5042686;28;20513;-74
2022/07/03 20:01:28;;;;;;;5.57;1.30;;;20.50;51.70;;;;;;5045870;28;20519;-74
2022/07/03 20:03:56;;;;;;;5.13;1.30;;;20.50;51.60;;;;;;5046823;28;20033;-74
2022/07/03 20:06:22;;;;;;;6.05;0.90;;;20.50;51.40;;;;;;5036424;28;20033;-74
2022/07/03 20:08:47;;;;;;;6.60;1.20;;;20.50;51.40;;;;;;5041082;28;20092;-74
2022/07/03 20:11:13;;;;;;;5.32;1.20;;;20.50;51.50;;;;;;5041213;28;20128;-74
2022/07/03 20:13:39;;;;;;;5.35;0.98;;;20.40;51.40;;;;;;5036815;28;20049;-74
2022/07/03 20:16:05;;;;;;;4.60;0.90;;;20.40;51.40;;;;;;5035371;28;20048;-73
2022/07/03 20:18:34;;;;;;;6.00;1.13;;;20.40;51.30;;;;;;5040662;28;20412;-74
2022/07/03 20:21:09;;;;;;;5.80;1.08;;;20.30;51.50;;;;;;5045311;28;20032;-74
2022/07/03 20:24:30;;;;;;;6.20;1.20;;;20.20;51.50;;;;;;5043753;28;20050;-74
2022/07/03 20:26:21;;;;;;;3.15;1.00;;;20.20;51.60;;;;;;5031876;28;20033;-74
2022/07/03 20:28:46;;;;;;;6.63;1.00;;;20.20;51.60;;;;;;5046756;28;20036;-74
2022/07/03 20:31:12;;;;;;;5.00;1.40;;;20.10;51.60;;;;;;5038413;28;20034;-74
2022/07/03 20:33:38;;;;;;;5.93;1.00;;;20.10;51.70;;;;;;5038678;28;20045;-74
2022/07/03 20:36:04;;;;;;;4.60;0.90;;;20.00;52.00;;;;;;5040950;28;20025;-73
2022/07/03 20:38:29;;;;;;;5.00;1.23;;;19.90;52.30;;;;;;5041431;28;20622;-74
2022/07/03 20:40:55;;;;;;;3.80;1.00;;;19.80;52.50;;;;;;5029919;28;20101;-74
2022/07/03 20:43:21;;;;;;;7.07;1.10;;;19.80;52.60;;;;;;5033235;28;20440;-74
2022/07/03 20:45:47;;;;;;;6.45;0.88;;;19.70;52.50;;;;;;5045234;28;20027;-74
2022/07/03 20:48:12;;;;;;;5.72;1.17;;;19.70;52.70;;;;;;5037452;28;20049;-74
2022/07/03 20:50:38;;;;;;;5.07;1.00;;;19.60;52.80;;;;;;5033863;28;20065;-74
2022/07/03 20:53:04;;;;;;;6.38;1.00;;;19.60;53.00;;;;;;5034334;28;20558;-74
2022/07/03 20:55:31;;;;;;;5.72;1.20;;;19.50;53.60;;;;;;5042865;28;20025;-74
2022/07/03 20:57:57;;;;;;;5.93;1.10;;;20.70;54.40;;;;;;5036354;28;20021;-74
2022/07/03 21:00:22;;;;;;;6.32;0.90;;;19.40;54.00;;;;;;5046219;28;20382;-74
2022/07/03 21:02:49;;;;;;;4.15;0.90;;;19.30;54.20;;;;;;5039391;28;20033;-74
2022/07/03 21:05:15;;;;;;;6.13;1.00;;;19.20;54.50;;;;;;5031075;28;20033;-74
2022/07/03 21:07:41;;;;;;;4.15;1.08;;;19.20;54.90;;;;;;5042407;28;26724;-74
2022/07/03 21:10:07;;;;;;;5.57;1.17;;;19.20;55.10;;;;;;5029956;28;20021;-74
2022/07/03 21:12:33;;;;;;;4.97;1.20;;;19.10;55.00;;;;;;5034858;28;20029;-74
2022/07/03 21:14:59;;;;;;;3.65;1.20;;;19.10;55.10;;;;;;5032054;28;20025;-74
2022/07/03 21:17:24;;;;;;;5.75;1.13;;;19.00;55.20;;;;;;5037524;28;20051;-74
2022/07/03 21:19:50;;;;;;;5.82;1.10;;;19.00;55.40;;;;;;5043488;28;20024;-74
2022/07/03 21:22:16;;;;;;;6.25;1.15;;;18.90;55.70;;;;;;5028948;28;20029;-74
2022/07/03 21:24:43;;;;;;;3.22;1.00;;;18.90;56.00;;;;;;5034662;28;20439;-74
2022/07/03 21:27:11;;;;;;;4.38;0.82;;;18.90;56.10;;;;;;5042981;28;20033;-74
2022/07/03 21:29:37;;;;;;;5.93;1.10;;;18.80;56.40;;;;;;5037281;28;20083;-74
2022/07/03 21:32:03;;;;;;;4.85;1.15;;;18.80;56.70;;;;;;5034457;28;20477;-74
2022/07/03 21:34:29;;;;;;;6.80;1.05;;;18.70;57.00;;;;;;5039278;28;20487;-74
2022/07/03 21:36:56;;;;;;;5.20;1.20;;;18.70;56.90;;;;;;5041607;28;20098;-72
2022/07/03 21:39:22;;;;;;;6.15;0.95;;;18.60;57.20;;;;;;5034323;28;20113;-74
2022/07/03 21:41:48;;;;;;;5.38;1.30;;;18.60;57.40;;;;;;5031747;28;20104;-74
2022/07/03 21:44:15;;;;;;;5.00;0.90;;;18.50;56.90;;;;;;5032867;28;20095;-74
2022/07/03 21:46:43;;;;;;;9.57;1.38;;;18.50;56.70;;;;;;5030435;28;20053;-74
2022/07/03 21:49:27;;;;;;;5.28;1.00;;;17.20;57.70;;;;;;5035137;28;20025;-74
2022/07/03 21:51:52;;;;;;;3.90;1.20;;;18.40;56.70;;;;;;5031105;28;20018;-74
2022/07/03 21:54:18;;;;;;;9.52;1.48;;;18.40;57.20;;;;;;5034205;28;20487;-74
2022/07/03 21:56:44;;;;;;;5.93;1.30;;;18.30;57.40;;;;;;5039342;28;20032;-74
2022/07/03 21:59:10;;;;;;;8.05;1.40;;;18.30;57.40;;;;;;5031874;28;20105;-74
2022/07/03 22:01:35;;;;;;;4.43;1.13;;;18.20;57.80;;;;;;5030576;28;20064;-74
2022/07/03 22:04:01;;;;;;;4.38;1.13;;;18.20;57.80;;;;;;5032042;28;20021;-74
2022/07/03 22:06:27;;;;;;;3.97;1.10;;;18.10;58.00;;;;;;5044696;28;20036;-74
2022/07/03 22:08:53;;;;;;;3.92;1.10;;;18.10;57.90;;;;;;5038757;28;20026;-74
2022/07/03 22:11:19;;;;;;;4.05;1.10;;;18.00;57.70;;;;;;5032179;28;20029;-74
2022/07/03 22:13:44;;;;;;;5.13;1.08;;;17.90;58.00;;;;;;5033266;28;20040;-74
2022/07/03 22:16:10;;;;;;;4.25;1.10;;;17.90;58.20;;;;;;5047902;28;20411;-74
2022/07/03 22:18:36;;;;;;;4.07;1.20;;;17.90;58.90;;;;;;5041408;28;20047;-74
2022/07/03 22:21:03;;;;;;;4.88;1.00;;;17.80;59.10;;;;;;5036422;28;20030;-74
2022/07/03 22:23:29;;;;;;;6.45;1.08;;;17.80;58.80;;;;;;5040018;28;20025;-74
2022/07/03 22:25:55;;;;;;;4.72;1.20;;;17.80;59.00;;;;;;5047734;28;20027;-74
2022/07/03 22:28:20;;;;;;;3.45;1.10;;;17.70;59.10;;;;;;5042845;28;20057;-74
2022/07/03 22:30:46;;;;;;;5.63;1.35;;;17.70;59.30;;;;;;5050717;28;20438;-74
2022/07/03 22:33:12;;;;;;;5.70;1.30;;;17.70;59.50;;;;;;5034449;28;20037;-74
2022/07/03 22:35:37;;;;;;;7.03;1.20;;;17.70;60.10;;;;;;5035768;28;20389;-74
2022/07/03 22:38:03;;;;;;;7.05;1.38;;;17.60;59.50;;;;;;5045477;28;20060;-74
2022/07/03 22:40:29;;;;;;;6.22;1.25;;;17.60;59.80;;;;;;5048863;28;20593;-74
2022/07/03 22:42:55;;;;;;;6.65;1.50;;;17.60;60.00;;;;;;5047147;28;20033;-74
2022/07/03 22:45:21;;;;;;;6.10;1.40;;;17.60;60.20;;;;;;5038960;28;20556;-75
2022/07/03 22:47:48;;;;;;;8.93;1.20;;;17.60;60.40;;;;;;5039898;28;20026;-75
2022/07/03 22:50:15;;;;;;;4.90;1.10;;;17.50;60.30;;;;;;5039389;28;20109;-75
2022/07/03 22:52:40;;;;;;;3.17;1.13;;;17.50;60.40;;;;;;5033347;28;20036;-75
2022/07/03 22:55:07;;;;;;;6.20;1.23;;;17.50;60.40;;;;;;5035911;28;20025;-75
2022/07/03 22:57:32;;;;;;;3.95;0.98;;;17.40;60.30;;;;;;5032688;28;20037;-74
2022/07/03 22:59:58;;;;;;;4.68;1.17;;;17.40;60.00;;;;;;5042891;28;20025;-75
2022/07/03 23:02:24;;;;;;;8.15;1.50;;;17.30;59.60;;;;;;5043168;28;20028;-74
2022/07/03 23:04:52;;;;;;;3.35;1.10;;;17.20;59.70;;;;;;5045574;28;20163;-74
2022/07/03 23:07:18;;;;;;;6.82;1.33;;;17.20;60.10;;;;;;5048389;28;20377;-75